Tiempo atmosférico en la estación meteorológica de Es Mercadal, Illes Balears (77 m.)



Fecha
DESCASC
Temp. máxima en grados centígrados (hora)
DESCASC
Temp. mínima en grados centígrados (hora)
DESCASC
Temp. media en grados centígrados
DESCASC
Racha de viento máxima en m/sg (hora)
DESCASC
Velocidad máxima media en intervalos de 10 minutos(hora)
DESCASC
Precipitaciones diarias en mm
DESCASC
Precipitaciones de 00:00 a 06:00 en mm
DESCASC
Precipitaciones de 06:00 a 12:00 en mm
DESCASC
Precipitaciones de 12:00 a 18:00 en mm
DESCASC
Precipitaciones de 18:00 a 24:00 en mm
DESCASC
15-07-2018 -- (--) -- (--) -- 10.83 (23:30) 7.5 (23:30) 0 0 0 0 0
14-07-2018 28.9 (13:00) 22.2 (23:59) 25.6 9.72 (14:00) 6.39 (14:00) 0 0 0 0 0
13-07-2018 -- (--) -- (--) -- 13.06 (12:40) 9.44 (12:40) 0 0 0 0 0
12-07-2018 -- (--) -- (--) -- 9.17 (12:00) 6.11 (18:20) 0 0 0 0 0
11-07-2018 31.1 (15:20) 22.5 (00:00) 26.8 8.33 (14:50) 5.83 (17:10) 0 0 0 0 0
10-07-2018 -- (--) -- (--) -- 8.61 (14:30) 5.56 (19:20) 0 0 0 0 0
09-07-2018 -- (--) -- (--) -- 7.22 (10:20) 5.28 (10:20) 0 0 0 0 0
08-07-2018 31.4 (13:50) 20.5 (04:30) 25.9 6.67 (09:30) 4.72 (09:40) 0 0 0 0 0
07-07-2018 -- (--) -- (--) -- 7.78 (14:00) 5.28 (18:20) 0 0 0 0 0
06-07-2018 -- (--) -- (--) -- 7.5 (09:10) 5.28 (17:30) 0 0 0 0 0
05-07-2018 26.6 (10:50) 20 (06:50) 23.3 11.94 (00:30) 8.61 (01:00) 0 0 0 0 0
04-07-2018 -- (--) -- (--) -- 11.94 (23:59) 7.78 (21:50) 0 0 0 0 0
03-07-2018 32 (17:30) 20.8 (06:10) 26.4 8.33 (11:10) 5.28 (15:20) 0 0 0 0 0
02-07-2018 -- (--) -- (--) -- 10.56 (14:50) 5.28 (11:30) 0 0 0 0 0
01-07-2018 -- (--) -- (--) -- 8.06 (12:30) 5.56 (12:30) 0 0 0 0 0
30-06-2018 -- (--) -- (--) -- 13.06 (13:50) 8.33 (15:00) 0 0 0 0 0
29-06-2018 -- (--) -- (--) -- 7.5 (08:30) 5 (08:30) 0 0 0 0 0
28-06-2018 29.5 (11:10) 21.2 (00:00) 25.4 8.06 (14:40) 4.72 (18:30) 0 0 0 0 0
27-06-2018 29.4 (12:50) 19 (00:00) 24.2 7.78 (12:30) 5.56 (17:50) 0 0 0 0 0
26-06-2018 28.4 (14:30) 17.8 (00:00) 23.1 7.22 (14:40) 4.17 (19:00) 0 0 0 0 0
25-06-2018 27.2 (17:10) 17.5 (00:00) 22.4 6.67 (14:40) 4.44 (08:50) 0 0 0 0 0
24-06-2018 25.9 (16:20) 18.8 (00:00) 22.3 7.5 (14:30) 4.72 (15:00) 0 0 0 0 0
23-06-2018 25.7 (15:50) 19 (00:00) 22.4 10 (14:20) 7.22 (14:20) 0 0 0 0 0
22-06-2018 27.6 (10:20) 20.1 (03:00) 23.9 8.61 (14:30) 5.56 (11:10) 0 0 0 0 0
21-06-2018 28.5 (13:20) 18.4 (00:00) 23.4 7.22 (13:50) 4.72 (15:10) 0 0 0 0 0
20-06-2018 28.6 (15:10) 19.2 (00:00) 23.9 7.22 (13:30) 4.17 (17:30) 0 0 0 0 0
19-06-2018 24.1 (15:30) 19.9 (00:00) 22 14.17 (11:30) 10.28 (11:00) 0 0 0 0 0
18-06-2018 25.3 (12:30) 18.3 (00:00) 21.8 9.72 (13:50) 6.67 (14:00) 0 0 0 0 0
17-06-2018 24.2 (17:20) 17.6 (00:00) 20.9 11.11 (12:00) 7.5 (12:00) 0 0 0 0 0

Gráficas

Temp. máximas Temp. mínimas Temp. medias Precipitaciones Rachas de viento máximas Velocidades máximas media en intervalos de 10 minutos

Datos horarios

Fecha y hora oficial Temperatura (ºC) Velocidad del viento (km/h) Dirección del viento Racha (km/h) Dirección de racha Precipitación (mm) Presión (hPa) Tendencia (hPa) Humedad (%)
2018-07-16 23:00:00 22.5 8 Sudoeste 12 Sur 0 -- -- 68
2018-07-16 22:00:00 23.3 5 Sur 12 Sur 0 -- -- 66
2018-07-16 21:00:00 24.7 5 Nordeste 10 Nordeste 0 -- -- 59
2018-07-16 20:00:00 25.9 6 Norte 18 Nordeste 0 -- -- 51
2018-07-16 19:00:00 25.7 13 Nordeste 27 Nordeste 0 -- -- 64
2018-07-16 18:00:00 25.8 17 Nordeste 29 Nordeste 0 -- -- 65
2018-07-16 17:00:00 26.5 17 Norte 30 Norte 0 -- -- 64
2018-07-16 16:00:00 26.1 19 Norte 52 Oeste 0 -- -- 67
2018-07-16 15:00:00 28.6 31 Noroeste 57 Oeste 0 -- -- 57
2018-07-16 14:00:00 29.6 31 Oeste 54 Oeste 0 -- -- 54
2018-07-16 13:00:00 29 32 Oeste 49 Sudoeste 0 -- -- 66
2018-07-16 12:00:00 28.6 30 Sudoeste 51 Sudoeste 0 -- -- 68
2018-07-16 11:00:00 26.9 34 Sudoeste 51 Sudoeste 0 -- -- 77
2018-07-16 10:00:00 25.9 35 Sudoeste 56 Sudoeste 0 -- -- 79
2018-07-16 09:00:00 24.9 33 Sudoeste 51 Sudoeste 0 -- -- 84
2018-07-16 08:00:00 24.7 22 Sudoeste 55 Sudoeste 0 -- -- 88
2018-07-16 07:00:00 24.5 28 Sur 50 Sur 0 -- -- 86
2018-07-16 06:00:00 24.7 34 Sudoeste 52 Sudoeste 0 -- -- 87
2018-07-16 05:00:00 24.9 26 Sudoeste 47 Sudoeste 0 -- -- 88
2018-07-16 04:00:00 25.1 31 Sudoeste 57 Sudoeste 0 -- -- 85
2018-07-16 03:00:00 24.9 28 Sur 42 Sur 0 -- -- 87
2018-07-16 02:00:00 24.8 5 Sudeste 34 Sur 0 -- -- 80
2018-07-16 01:00:00 24.9 21 Sur 32 Sur 0 -- -- 85
2018-07-16 00:00:00 25.1 22 Sudoeste 39 Sudoeste 0 -- -- 88
2018-07-15 23:00:00 24.7 13 Sur 31 Sur 0 -- -- 88
2018-07-15 22:00:00 25.1 22 Sur 35 Sur 0 -- -- 87
2018-07-15 21:00:00 25.7 24 Sur 35 Sur 0 -- -- 82
2018-07-15 20:00:00 26.9 15 Sur 31 Sur 0 -- -- 73
2018-07-15 19:00:00 27.6 23 Sur 32 Sudoeste 0 -- -- 72
2018-07-15 18:00:00 28.8 23 Sur 31 Sur 0 -- -- 65
2018-07-15 17:00:00 30 23 Sudoeste 32 Sudoeste 0 -- -- 60
2018-07-15 16:00:00 31.9 19 Sur 28 Sur 0 -- -- 51
2018-07-15 15:00:00 32.3 18 Sur 26 Sur 0 -- -- 43
2018-07-15 14:00:00 32.6 14 Sudoeste 26 Sur 0 -- -- 51
2018-07-15 13:00:00 31.2 14 Sudoeste 31 Sudoeste 0 -- -- 57
2018-07-15 12:00:00 30.3 19 Sudoeste 30 Sur 0 -- -- 62
2018-07-15 11:00:00 30 14 Sudoeste 23 Sur 0 -- -- 58
2018-07-15 10:00:00 28.8 10 Sudoeste 17 Sur 0 -- -- 65
2018-07-15 09:00:00 26 9 Sur 16 Sur 0 -- -- 81
2018-07-15 08:00:00 24 7 Sur 12 Sur 0 -- -- 90
2018-07-15 07:00:00 22.3 5 Sur 8 Sur 0 -- -- 94
2018-07-15 06:00:00 22.2 4 Sur 13 Sudoeste 0 -- -- 93
2018-07-15 05:00:00 22.4 8 Sur 15 Sur 0 -- -- 88
2018-07-15 04:00:00 22.4 10 Sur 14 Sur 0 -- -- 82
2018-07-15 03:00:00 22.4 8 Sur 15 Sudoeste 0 -- -- 77
2018-07-15 02:00:00 21.5 9 Sur 12 Sur 0 -- -- 74
2018-07-15 01:00:00 21.5 3 Sudoeste 4 Sudoeste 0 -- -- 85
2018-07-15 00:00:00 22.2 0 Calma 2 Noroeste 0 -- -- 76
2018-07-14 23:00:00 22.8 0 Calma 4 Norte 0 -- -- 77
2018-07-14 22:00:00 24.1 3 Norte 5 Oeste 0 -- -- 73
2018-07-14 21:00:00 26 3 Noroeste 15 Norte 0 -- -- 73
2018-07-14 20:00:00 27.6 10 Norte 22 Noroeste 0 -- -- 64
2018-07-14 19:00:00 28.3 16 Noroeste 24 Noroeste 0 -- -- 51
2018-07-14 18:00:00 28.5 15 Norte 27 Norte 0 -- -- 58
2018-07-14 17:00:00 28.6 18 Norte 29 Norte 0 -- -- 61
2018-07-14 16:00:00 28.6 21 Norte 32 Norte 0 -- -- 65
2018-07-14 15:00:00 28.5 21 Norte 33 Norte 0 -- -- 65
2018-07-14 14:00:00 28.6 23 Norte 35 Norte 0 -- -- 62
2018-07-14 13:00:00 28.9 20 Norte 31 Norte 0 -- -- 61
2018-07-14 12:00:00 28.5 15 Norte 25 Norte 0 -- -- 65
2018-07-14 11:00:00 28.3 11 Norte 18 Norte 0 -- -- 68
2018-07-14 10:00:00 27.4 10 Nordeste 18 Nordeste 0 -- -- 71
2018-07-14 09:00:00 26.9 8 Nordeste 18 Nordeste 0 -- -- 76
2018-07-14 08:00:00 25.1 4 Nordeste 10 Nordeste 0 -- -- 81
2018-07-14 07:00:00 23.4 7 Nordeste 17 Nordeste 0 -- -- 85
2018-07-14 06:00:00 23.3 11 Nordeste 14 Nordeste 0 -- -- 83
2018-07-14 05:00:00 23.7 10 Nordeste 22 Nordeste 0 -- -- 83
2018-07-14 04:00:00 23.7 12 Nordeste 26 Este 0 -- -- 81
2018-07-14 03:00:00 23.8 15 Nordeste 26 Nordeste 0 -- -- 83
2018-07-14 02:00:00 23.6 14 Nordeste 21 Nordeste 0 -- -- 84
2018-07-14 01:00:00 22.9 5 Nordeste 10 Nordeste 0 -- -- 84
2018-07-14 00:00:00 22.7 3 Norte 10 Norte 0 -- -- 85
2018-07-13 23:00:00 23.2 3 Oeste 12 Nordeste 0 -- -- 83
2018-07-13 22:00:00 24.3 4 Nordeste 15 Nordeste 0 -- -- 78
2018-07-13 21:00:00 25 12 Nordeste 28 Este 0 -- -- 74
2018-07-13 20:00:00 26.2 18 Nordeste 32 Nordeste 0 -- -- 66
2018-07-13 19:00:00 26.7 24 Nordeste 35 Este 0 -- -- 64
2018-07-13 18:00:00 27.9 21 Nordeste 31 Nordeste 0 -- -- 62
2018-07-13 17:00:00 29.1 21 Nordeste 31 Este 0 -- -- 56
2018-07-13 16:00:00 29.6 18 Este 33 Este 0 -- -- 54
2018-07-13 15:00:00 29.7 19 Nordeste 41 Este 0 -- -- 56
2018-07-13 14:00:00 27.8 26 Este 46 Este 0 -- -- 61
2018-07-13 13:00:00 28.3 26 Nordeste 47 Nordeste 0 -- -- 57
2018-07-13 12:00:00 29.3 22 Nordeste 40 Este 0 -- -- 50
2018-07-13 11:00:00 28 24 Nordeste 35 Nordeste 0 -- -- 55
2018-07-13 10:00:00 26.8 18 Nordeste 38 Nordeste 0 -- -- 69
2018-07-13 09:00:00 25.6 20 Nordeste 32 Este 0 -- -- 81
2018-07-13 08:00:00 23.9 10 Nordeste 18 Nordeste 0 -- -- 90
2018-07-13 07:00:00 22.3 12 Nordeste 18 Nordeste -- -- -- 96
2018-07-13 06:00:00 21.6 9 Norte 12 Norte 0 -- -- 98
2018-07-13 05:00:00 21.8 2 Norte 9 Nordeste 0 -- -- 96
2018-07-13 04:00:00 22.5 5 Nordeste 8 Nordeste 0 -- -- 94
2018-07-13 03:00:00 23 0 Calma 9 Nordeste 0 -- -- 93
2018-07-13 02:00:00 22.9 4 Este 8 Nordeste 0 -- -- 90
2018-07-13 01:00:00 23.5 5 Nordeste 9 Nordeste 0 -- -- 88
2018-07-13 00:00:00 23.7 5 Nordeste 12 Nordeste 0 -- -- 89
2018-07-12 23:00:00 24.1 8 Nordeste 19 Este 0 -- -- 88
2018-07-12 22:00:00 24.5 10 Este 18 Sudeste 0 -- -- 86
2018-07-12 21:00:00 25.6 12 Este 23 Este 0 -- -- 81
2018-07-12 20:00:00 27.9 12 Este 22 Este 0 -- -- 69
2018-07-12 19:00:00 29 13 Sudeste 32 Este 0 -- -- 65
2018-07-12 18:00:00 30.2 19 Sudeste 28 Este 0 -- -- 63
2018-07-12 17:00:00 31.4 15 Sur 27 Sur 0 -- -- 50
2018-07-12 16:00:00 31.4 13 Sur 32 Sur 0 -- -- 50
2018-07-12 15:00:00 31 20 Sudoeste 31 Sudoeste 0 -- -- 59
2018-07-12 14:00:00 30.9 16 Sudoeste 28 Sudoeste 0 -- -- 58
2018-07-12 13:00:00 29.8 18 Sur 31 Sur 0 -- -- 61
2018-07-12 12:00:00 30.2 22 Sudoeste 33 Sur 0 -- -- 60
2018-07-12 11:00:00 30.2 8 Sur 22 Sur 0 -- -- 57
2018-07-12 10:00:00 28.1 11 Sur 22 Sudeste 0 -- -- 67
2018-07-12 09:00:00 26 17 Sudeste 25 Sur 0 -- -- 77
2018-07-12 08:00:00 24.5 7 Sudeste 14 Sudeste 0 -- -- 84
2018-07-12 07:00:00 22.8 7 Sur 12 Sur 0 -- -- 90
2018-07-12 06:00:00 22.6 6 Sur 10 Sur 0 -- -- 89
2018-07-12 05:00:00 22.9 6 Sudeste 12 Sur 0 -- -- 87
2018-07-12 04:00:00 23 7 Sudeste 14 Sudeste 0 -- -- 86
2018-07-12 03:00:00 23.4 7 Sur 17 Sur 0 -- -- 88
2018-07-12 02:00:00 24 17 Sur 26 Sur 0 -- -- 86
2018-07-12 01:00:00 23.8 17 Sur 25 Sur 0 -- -- 83
2018-07-12 00:00:00 24 7 Sudeste 16 Sudeste 0 -- -- 82
2018-07-11 23:00:00 24.5 5 Sudeste 13 Sudeste 0 -- -- 79
2018-07-11 22:00:00 25.3 6 Sudeste 15 Sudeste 0 -- -- 73
2018-07-11 21:00:00 26.6 9 Sur 23 Sur 0 -- -- 63
2018-07-11 20:00:00 27.9 13 Sur 23 Sur 0 -- -- 58
2018-07-11 19:00:00 29.1 13 Sur 26 Sur 0 -- -- 54
2018-07-11 18:00:00 29.9 17 Sur 29 Sudoeste 0 -- -- 50
2018-07-11 17:00:00 30.9 17 Sudoeste 27 Sudoeste 0 -- -- 47
2018-07-11 16:00:00 31.1 14 Sudoeste 27 Nordeste 0 -- -- 45
2018-07-11 15:00:00 29.7 17 Nordeste 30 Nordeste 0 -- -- 54
2018-07-11 14:00:00 30 9 Nordeste 23 Norte 0 -- -- 51
2018-07-11 13:00:00 29.5 14 Nordeste 27 Nordeste 0 -- -- 54
2018-07-11 12:00:00 28.6 13 Nordeste 22 Norte 0 -- -- 61
2018-07-11 11:00:00 27.9 6 Norte 16 Norte 0 -- -- 67
2018-07-11 10:00:00 28.6 4 Oeste 14 Sudoeste 0 -- -- 61
2018-07-11 09:00:00 26.7 9 Sudoeste 15 Sudoeste 0 -- -- 77
2018-07-11 08:00:00 24.5 9 Sur 12 Sur 0 -- -- 89
2018-07-11 07:00:00 22.8 4 Sudoeste 8 Sur 0 -- -- 94
2018-07-11 06:00:00 22.7 4 Sudoeste 11 Sur 0 -- -- 94
2018-07-11 05:00:00 22.7 8 Sur 11 Sur 0 -- -- 93
2018-07-11 04:00:00 22.8 3 Sur 7 Sudoeste 0 -- -- 90
2018-07-11 03:00:00 23 4 Sur 12 Sudoeste 0 -- -- 89
2018-07-11 02:00:00 23.3 8 Sur 12 Sur 0 -- -- 85
2018-07-11 01:00:00 23.6 8 Sudoeste 12 Sur 0 -- -- 83
2018-07-11 00:00:00 24 7 Sudoeste 15 Sur 0 -- -- 80
2018-07-10 23:00:00 24.8 11 Sur 19 Sur 0 -- -- 74
2018-07-10 22:00:00 25.5 12 Sur 17 Sur 0 -- -- 69
2018-07-10 21:00:00 26.8 12 Sur 23 Sur 0 -- -- 58
2018-07-10 20:00:00 28.2 16 Sur 27 Sur 0 -- -- 52
2018-07-10 19:00:00 29.8 17 Sur 28 Sudoeste 0 -- -- 46
2018-07-10 18:00:00 31.2 15 Sur 27 Sur 0 -- -- 45
2018-07-10 17:00:00 31.3 10 Este 20 Sudeste 0 -- -- 44
2018-07-10 16:00:00 29 16 Este 26 Nordeste 0 -- -- 49
2018-07-10 15:00:00 29.8 9 Este 31 Nordeste 0 -- -- 46
2018-07-10 14:00:00 31 17 Nordeste 27 Nordeste 0 -- -- 42
2018-07-10 13:00:00 30.7 12 Nordeste 28 Nordeste 0 -- -- 43
2018-07-10 12:00:00 30.4 13 Nordeste 24 Nordeste 0 -- -- 44
2018-07-10 11:00:00 29.8 15 Norte 26 Nordeste 0 -- -- 44
2018-07-10 10:00:00 29.3 12 Norte 19 Nordeste 0 -- -- 45
2018-07-10 09:00:00 27.7 10 Norte 16 Norte 0 -- -- 56
2018-07-10 08:00:00 25.4 3 Sudoeste 5 Sudoeste 0 -- -- 63
2018-07-10 07:00:00 22.5 3 Sur 9 Sudoeste 0 -- -- 84
2018-07-10 06:00:00 22.3 6 Sudoeste 9 Sudoeste 0 -- -- 92
2018-07-10 05:00:00 23.3 3 Sur 10 Sur 0 -- -- 92
2018-07-10 04:00:00 23.2 9 Sudoeste 13 Sur 0 -- -- 89
2018-07-10 03:00:00 23.7 9 Sudoeste 15 Sudoeste 0 -- -- 84
2018-07-10 02:00:00 23.8 6 Sudoeste 10 Sudoeste 0 -- -- 78
2018-07-10 01:00:00 23.6 5 Sur 12 Sur 0 -- -- 77
2018-07-10 00:00:00 24 8 Sur 14 Sur 0 -- -- 74
2018-07-09 23:00:00 24.2 7 Sur 14 Sudoeste 0 -- -- 74
2018-07-09 22:00:00 24.6 6 Sur 18 Sudoeste 0 -- -- 71
2018-07-09 21:00:00 26.1 13 Sudoeste 18 Sudoeste 0 -- -- 66
2018-07-09 20:00:00 28.6 15 Sudoeste 23 Sudoeste 0 -- -- 51
2018-07-09 19:00:00 30.2 16 Sudoeste 23 Sudoeste 0 -- -- 51
2018-07-09 18:00:00 30.7 8 Nordeste 24 Nordeste 0 -- -- 39
2018-07-09 17:00:00 30.2 11 Nordeste 23 Norte 0 -- -- 40
2018-07-09 16:00:00 30.3 15 Norte 23 Nordeste 0 -- -- 42
2018-07-09 15:00:00 30.1 14 Norte 22 Noroeste 0 -- -- 46
2018-07-09 14:00:00 30.3 15 Norte 26 Norte 0 -- -- 43
2018-07-09 13:00:00 30.2 16 Norte 25 Norte 0 -- -- 44
2018-07-09 12:00:00 30.1 14 Nordeste 24 Nordeste 0 -- -- 44
2018-07-09 11:00:00 29.2 15 Nordeste 26 Nordeste 0 -- -- 46
2018-07-09 10:00:00 28 16 Norte 25 Norte 0 -- -- 48
2018-07-09 09:00:00 27 15 Norte 25 Norte 0 -- -- 69
2018-07-09 08:00:00 25.4 6 Norte 11 Norte 0 -- -- 66
2018-07-09 07:00:00 23.7 0 Calma 8 Norte 0 -- -- 65
2018-07-09 06:00:00 23.3 2 Noroeste 6 Norte 0 -- -- 71
2018-07-09 05:00:00 23.2 3 Norte 8 Noroeste 0 -- -- 70
2018-07-09 04:00:00 22.8 0 Calma 3 Sudeste 0 -- -- 53
2018-07-09 03:00:00 23.5 0 Calma 6 Sudoeste 0 -- -- 50
2018-07-09 02:00:00 24.1 5 Sudoeste 8 Sudoeste 0 -- -- 48
2018-07-09 01:00:00 22.4 5 Sudoeste 6 Sudoeste 0 -- -- 62
2018-07-09 00:00:00 22.5 3 Sudoeste 4 Sur 0 -- -- 76
2018-07-08 23:00:00 23.3 2 Sudoeste 6 Norte 0 -- -- 74
2018-07-08 22:00:00 24.5 7 Norte 9 Norte 0 -- -- 68
2018-07-08 21:00:00 27.1 6 Sudoeste 9 Sudoeste 0 -- -- 66
2018-07-08 20:00:00 28.2 6 Nordeste 15 Nordeste 0 -- -- 55
2018-07-08 19:00:00 29 10 Nordeste 17 Nordeste 0 -- -- 54
2018-07-08 18:00:00 29.6 10 Nordeste 18 Norte 0 -- -- 54
2018-07-08 17:00:00 30.1 14 Norte 21 Norte 0 -- -- 45
2018-07-08 16:00:00 30.4 10 Norte 22 Nordeste 0 -- -- 49
2018-07-08 15:00:00 30.4 12 Norte 23 Nordeste 0 -- -- 56
2018-07-08 14:00:00 30.7 12 Norte 21 Norte 0 -- -- 44
2018-07-08 13:00:00 30.1 11 Nordeste 20 Nordeste 0 -- -- 53
2018-07-08 12:00:00 29.4 11 Nordeste 20 Nordeste 0 -- -- 50
2018-07-08 11:00:00 27 10 Norte 22 Norte 0 -- -- 72
2018-07-08 10:00:00 26.2 15 Norte 24 Norte 0 -- -- 75
2018-07-08 09:00:00 25.5 12 Norte 19 Norte 0 -- -- 80
2018-07-08 08:00:00 23.2 5 Norte 9 Norte 0 -- -- 92
2018-07-08 07:00:00 21.4 0 Calma 12 Norte 0 -- -- 95
2018-07-08 06:00:00 21 4 Nordeste 7 Norte 0 -- -- 97
2018-07-08 05:00:00 20.7 4 Norte 9 Nordeste 0 -- -- 96
2018-07-08 04:00:00 20.8 4 Nordeste 7 Nordeste 0 -- -- 94
2018-07-08 03:00:00 21.6 3 Sudoeste 9 Sudoeste 0 -- -- 94
2018-07-08 02:00:00 21.8 5 Sudoeste 10 Sur 0 -- -- 91
2018-07-08 01:00:00 22.1 6 Sudoeste 17 Sur 0 -- -- 89
2018-07-08 00:00:00 21.9 12 Sudoeste 17 Sudoeste 0 -- -- 87
2018-07-07 23:00:00 22.8 4 Sur 8 Nordeste 0 -- -- 83
2018-07-07 22:00:00 23.5 6 Nordeste 18 Nordeste 0 -- -- 83
2018-07-07 21:00:00 24.5 15 Nordeste 20 Nordeste 0 -- -- 78
2018-07-07 20:00:00 26.3 10 Nordeste 17 Nordeste 0 -- -- 70
2018-07-07 19:00:00 27.1 10 Nordeste 25 Nordeste 0 -- -- 69
2018-07-07 18:00:00 27.7 18 Nordeste 24 Nordeste 0 -- -- 67
2018-07-07 17:00:00 28.8 5 Noroeste 21 Nordeste 0 -- -- 63
2018-07-07 16:00:00 28.7 10 Nordeste 27 Norte 0 -- -- 63
2018-07-07 15:00:00 28.7 10 Nordeste 25 Nordeste 0 -- -- 62
2018-07-07 14:00:00 28 14 Norte 28 Norte 0 -- -- 62
2018-07-07 13:00:00 29.2 10 Este 27 Nordeste 0 -- -- 54
2018-07-07 12:00:00 28.6 12 Nordeste 23 Nordeste 0 -- -- 52
2018-07-07 11:00:00 28.3 8 Norte 15 Este 0 -- -- 52
2018-07-07 10:00:00 27.5 6 Sudeste 10 Sudeste 0 -- -- 58
2018-07-07 09:00:00 25.9 4 Este 8 Nordeste 0 -- -- 69
2018-07-07 08:00:00 23.2 5 Sudeste 6 Sudeste 0 -- -- 84
2018-07-07 07:00:00 20.8 2 Sur 7 Sur 0 -- -- 94
2018-07-07 06:00:00 20.3 4 Sudoeste 7 Sur 0 -- -- 95
2018-07-07 05:00:00 20.1 5 Sudoeste 8 Sur 0 -- -- 95
2018-07-07 04:00:00 20.1 5 Sudoeste 8 Sudoeste 0 -- -- 94
2018-07-07 03:00:00 20.2 4 Sudoeste 6 Sudoeste 0 -- -- 93
2018-07-07 02:00:00 20.1 3 Sudoeste 5 Sudoeste 0 -- -- 91
2018-07-07 01:00:00 20.5 0 Calma 5 Norte 0 -- -- 89
2018-07-07 00:00:00 21.2 4 Nordeste 8 Sudoeste 0 -- -- 87
2018-07-06 23:00:00 22.1 6 Sur 10 Sur 0 -- -- 85
2018-07-06 22:00:00 22.7 6 Sur 14 Sudoeste 0 -- -- 83
2018-07-06 21:00:00 24.1 8 Sudoeste 15 Sur 0 -- -- 77
2018-07-06 20:00:00 25 11 Sur 23 Sudoeste 0 -- -- 73
2018-07-06 19:00:00 25.4 17 Sudoeste 26 Sudoeste 0 -- -- 72
2018-07-06 18:00:00 26.6 18 Sudoeste 27 Sudoeste 0 -- -- 68
2018-07-06 17:00:00 26.2 4 Norte 20 Norte 0 -- -- 64
2018-07-06 16:00:00 27.8 13 Norte 24 Norte 0 -- -- 59
2018-07-06 15:00:00 27.1 7 Nordeste 24 Nordeste 0 -- -- 61
2018-07-06 14:00:00 26.5 15 Nordeste 24 Nordeste 0 -- -- 63
2018-07-06 13:00:00 26.3 15 Norte 24 Norte 0 -- -- 62
2018-07-06 12:00:00 26.1 13 Nordeste 23 Norte 0 -- -- 62
2018-07-06 11:00:00 26.4 10 Nordeste 21 Nordeste 0 -- -- 60
2018-07-06 10:00:00 25.5 13 Nordeste 27 Nordeste 0 -- -- 63
2018-07-06 09:00:00 24.8 15 Norte 23 Norte 0 -- -- 68
2018-07-06 08:00:00 23.2 4 Nordeste 8 Norte 0 -- -- 81
2018-07-06 07:00:00 20.3 4 Nordeste 5 Nordeste 0 -- -- 87
2018-07-06 06:00:00 20.3 3 Nordeste 4 Nordeste 0 -- -- 85
2018-07-06 05:00:00 20.7 0 Calma 2 Oeste 0 -- -- 82
2018-07-06 04:00:00 20.4 0 Calma 4 Oeste 0 -- -- 80
2018-07-06 03:00:00 20.2 2 Sudoeste 4 Oeste 0 -- -- 81
2018-07-06 02:00:00 20.1 0 Calma 4 Sur 0 -- -- 81
2018-07-06 01:00:00 20.5 3 Sudoeste 6 Sudoeste 0 -- -- 80
2018-07-06 00:00:00 20.9 2 Sudoeste 4 Oeste 0 -- -- 79
2018-07-05 23:00:00 21.2 0 Calma 5 Norte 0 -- -- 78
2018-07-05 22:00:00 22.2 4 Norte 12 Norte 0 -- -- 76
2018-07-05 21:00:00 23.3 10 Norte 19 Norte 0 -- -- 70
2018-07-05 20:00:00 24.4 14 Norte 26 Norte 0 -- -- 65
2018-07-05 19:00:00 25.4 17 Norte 28 Norte 0 -- -- 60
2018-07-05 18:00:00 25.7 18 Norte 29 Norte 0 -- -- 60
2018-07-05 17:00:00 25.6 21 Norte 33 Norte 0 -- -- 62
2018-07-05 16:00:00 25.7 22 Nordeste 35 Nordeste 0 -- -- 65
2018-07-05 15:00:00 26 21 Norte 37 Norte 0 -- -- 62
2018-07-05 14:00:00 24.9 26 Norte 42 Norte 0 -- -- 67
2018-07-05 13:00:00 24.8 23 Norte 39 Norte 0 -- -- 72
2018-07-05 12:00:00 24.4 26 Norte 40 Norte 0 -- -- 77
2018-07-05 11:00:00 25.6 20 Norte 33 Norte 0 -- -- 78
2018-07-05 10:00:00 25.7 13 Norte 21 Norte 0 -- -- 75
2018-07-05 09:00:00 25.8 10 Nordeste 18 Este 0 -- -- 76
2018-07-05 08:00:00 23.1 4 Sudeste 10 Sudeste 0 -- -- 88
2018-07-05 07:00:00 20.2 2 Sur 7 Sudeste 0 -- -- 94
2018-07-05 06:00:00 20.5 2 Sur 7 Sur 0 -- -- 93
2018-07-05 05:00:00 21.3 4 Sudoeste 10 Oeste 0 -- -- 93
2018-07-05 04:00:00 21.8 3 Sudoeste 14 Sudoeste 0 -- -- 94
2018-07-05 03:00:00 22.6 5 Sudoeste 30 Sudoeste 0 -- -- 91
2018-07-05 02:00:00 23.1 23 Sudoeste 42 Sudoeste 0 -- -- 86
2018-07-05 01:00:00 23.3 31 Sudoeste 43 Sudoeste 0 -- -- 88
2018-07-05 00:00:00 23.6 27 Sudoeste 43 Sudoeste 0 -- -- 91
2018-07-04 23:00:00 23.7 20 Sur 40 Sudoeste 0 -- -- 91
2018-07-04 22:00:00 23.7 23 Sur 38 Sur 0 -- -- 91
2018-07-04 21:00:00 24.3 19 Sur 32 Sur 0 -- -- 87
2018-07-04 20:00:00 25.7 20 Sur 32 Sur 0 -- -- 80
2018-07-04 19:00:00 28.4 17 Sudoeste 24 Sur 0 -- -- 67
2018-07-04 18:00:00 29.5 18 Sudoeste 24 Sur 0 -- -- 59
2018-07-04 17:00:00 31.1 14 Sudoeste 26 Sur 0 -- -- 50
2018-07-04 16:00:00 29.4 15 Sur 30 Sur 0 -- -- 61
2018-07-04 15:00:00 28.9 22 Sur 32 Sur 0 -- -- 66
2018-07-04 14:00:00 30.3 19 Sur 32 Sur 0 -- -- 55
2018-07-04 13:00:00 31 15 Sur 30 Sur 0 -- -- 59
2018-07-04 12:00:00 30.8 14 Sudeste 21 Sudeste 0 -- -- 57
2018-07-04 11:00:00 29 11 Sur 22 Sudeste 0 -- -- 67
2018-07-04 10:00:00 27.2 14 Sudeste 21 Sur 0 -- -- 74
2018-07-04 09:00:00 24.6 5 Sur 24 Sudeste 0 -- -- 90
2018-07-04 08:00:00 22.1 6 Sudoeste 11 Sudoeste 0 -- -- 99
2018-07-04 07:00:00 21.3 3 Nordeste 6 Nordeste 0 -- -- 99
2018-07-04 06:00:00 20.7 0 Calma 4 Norte 0 -- -- 98
2018-07-04 05:00:00 21.6 2 Sudeste 5 Noroeste 0 -- -- 97
2018-07-04 04:00:00 22.2 0 Calma 13 Sur 0 -- -- 97
2018-07-04 03:00:00 22.4 8 Sur 18 Sudoeste 0 -- -- 96
2018-07-04 02:00:00 22.5 12 Sur 18 Sur 0 -- -- 97
2018-07-04 01:00:00 22.6 13 Sudoeste 18 Sur 0 -- -- 97
2018-07-04 00:00:00 22.9 9 Sudoeste 15 Sur 0 -- -- 96
2018-07-03 23:00:00 23.3 6 Sur 17 Sur 0 -- -- 94
2018-07-03 22:00:00 23.8 10 Sur 15 Sur 0 -- -- 92
2018-07-03 21:00:00 24.9 12 Sur 20 Sur 0 -- -- 88
2018-07-03 20:00:00 27.7 10 Sur 22 Sur 0 -- -- 73
2018-07-03 19:00:00 31.3 12 Sur 16 Sur 0 -- -- 46
2018-07-03 18:00:00 31.8 9 Sur 17 Sudoeste 0 -- -- 50
2018-07-03 17:00:00 31.6 6 Sur 20 Sur 0 -- -- 53
2018-07-03 16:00:00 30.3 18 Sudoeste 28 Sudoeste 0 -- -- 60
2018-07-03 15:00:00 31.1 17 Sudoeste 29 Sudoeste 0 -- -- 58
2018-07-03 14:00:00 30.7 9 Sur 27 Sur 0 -- -- 65
2018-07-03 13:00:00 28.9 11 Sudoeste 22 Sur 0 -- -- 71
2018-07-03 12:00:00 30.4 5 Sur 30 Sudoeste 0 -- -- 62
2018-07-03 11:00:00 29.3 15 Sudoeste 23 Sur 0 -- -- 69
2018-07-03 10:00:00 28.1 7 Sudeste 12 Sur 0 -- -- 66
2018-07-03 09:00:00 25.7 8 Nordeste 14 Nordeste 0 -- -- 83
2018-07-03 08:00:00 23.2 0 Calma 4 Este 0 -- -- 96
2018-07-03 07:00:00 21.2 0 Calma 4 Sudoeste 0 -- -- 98
2018-07-03 06:00:00 20.9 0 Calma 2 Oeste 0 -- -- 98
2018-07-03 05:00:00 21.2 0 Calma 4 Sudoeste 0 -- -- 99
2018-07-03 04:00:00 21.6 3 Sudoeste 4 Oeste 0 -- -- 98
2018-07-03 03:00:00 22.1 0 Calma 5 Nordeste 0 -- -- 97
2018-07-03 02:00:00 22.6 3 Sudoeste 14 Sur 0 -- -- 97
2018-07-03 01:00:00 22.5 4 Sur 8 Sudoeste 0 -- -- 95
2018-07-03 00:00:00 22.7 3 Sur 12 Sur 0 -- -- 93
2018-07-02 23:00:00 23.1 5 Sur 13 Sur 0 -- -- 91
2018-07-02 22:00:00 23.4 5 Sur 13 Sudoeste 0 -- -- 88
2018-07-02 21:00:00 24.6 8 Sudoeste 13 Sur 0 -- -- 83
2018-07-02 20:00:00 25.7 9 Sudoeste 17 Sudoeste 0 -- -- 79
2018-07-02 19:00:00 27 10 Sudoeste 16 Sudoeste 0 -- -- 75
2018-07-02 18:00:00 27.2 8 Nordeste 15 Norte 0 -- -- 74
2018-07-02 17:00:00 28.5 10 Norte 18 Norte 0 -- -- 69
2018-07-02 16:00:00 28.1 13 Norte 21 Norte 0 -- -- 69
2018-07-02 15:00:00 28.7 8 Nordeste 38 Noroeste 0 -- -- 65
2018-07-02 14:00:00 29.4 14 Sur 28 Sudoeste 0 -- -- 63
2018-07-02 13:00:00 28.7 13 Sur 26 Sur 0 -- -- 66
2018-07-02 12:00:00 28.6 13 Sudoeste 28 Sur 0 -- -- 64
2018-07-02 11:00:00 27.7 13 Sur 26 Sudoeste 0 -- -- 70
2018-07-02 10:00:00 26.3 17 Sudoeste 24 Sudoeste 0 -- -- 71
2018-07-02 09:00:00 25 15 Sudoeste 25 Sudoeste 0 -- -- 81
2018-07-02 08:00:00 23.1 7 Sur 17 Sur 0 -- -- 92
2018-07-02 07:00:00 21.7 9 Sudoeste 14 Sur 0 -- -- 97
2018-07-02 06:00:00 21.2 9 Sudoeste 12 Sudoeste 0 -- -- 97
2018-07-02 05:00:00 21.2 6 Sudoeste 9 Sur 0 -- -- 96
2018-07-02 04:00:00 21.5 0 Calma 5 Oeste 0 -- -- 92
2018-07-02 03:00:00 21.5 5 Sur 8 Sur 0 -- -- 91
2018-07-02 02:00:00 21.8 3 Sudoeste 9 Sur 0 -- -- 92
2018-07-02 01:00:00 22.2 5 Sudoeste 13 Sudoeste 0 -- -- 91
2018-07-02 00:00:00 22.2 10 Sudoeste 12 Sudoeste 0 -- -- 91
2018-07-01 23:00:00 22.9 3 Sudoeste 10 Sudeste 0 -- -- 87
2018-07-01 22:00:00 24 4 Sur 11 Sudeste 0 -- -- 83
2018-07-01 21:00:00 25.2 6 Nordeste 16 Nordeste 0 -- -- 80
2018-07-01 20:00:00 26.3 10 Nordeste 17 Nordeste 0 -- -- 75
2018-07-01 19:00:00 27 10 Nordeste 17 Nordeste 0 -- -- 72
2018-07-01 18:00:00 27.4 11 Nordeste 25 Norte 0 -- -- 71
2018-07-01 17:00:00 27.8 12 Norte 22 Norte 0 -- -- 69
2018-07-01 16:00:00 28.1 12 Norte 21 Norte 0 -- -- 69
2018-07-01 15:00:00 27.6 14 Norte 21 Norte 0 -- -- 69
2018-07-01 14:00:00 27.8 12 Noroeste 25 Noroeste 0 -- -- 68
2018-07-01 13:00:00 28.2 15 Norte 29 Norte 0 -- -- 67
2018-07-01 12:00:00 28.3 12 Oeste 21 Oeste 0 -- -- 66
2018-07-01 11:00:00 27.9 4 Sur 18 Sudeste 0 -- -- 65
2018-07-01 10:00:00 26.6 10 Sudeste 19 Sudeste 0 -- -- 70
2018-07-01 09:00:00 25 12 Sudeste 22 Sudeste 0 -- -- 77
2018-07-01 08:00:00 23.5 7 Este 18 Este 0 -- -- 82
2018-07-01 07:00:00 21.7 5 Norte 16 Nordeste 0 -- -- 90
2018-07-01 06:00:00 21.3 9 Sudeste 19 Este 0 -- -- 93
2018-07-01 05:00:00 20.4 5 Norte 8 Nordeste 0 -- -- 91
2018-07-01 04:00:00 21.2 2 Noroeste 8 Sudeste 0 -- -- 89
2018-07-01 03:00:00 21.8 3 Sur 19 Sudeste 0 -- -- 86
2018-07-01 02:00:00 22.2 9 Sudeste 24 Sudeste 0 -- -- 84
2018-07-01 01:00:00 22.5 10 Sudeste 28 Este 0 -- -- 82
2018-07-01 00:00:00 22.5 12 Sudeste 30 Sudeste 0 -- -- 82
2018-06-30 23:00:00 22.7 14 Sudeste 30 Sudeste 0 -- -- 80
2018-06-30 22:00:00 23 15 Este 37 Este 0 -- -- 77
2018-06-30 21:00:00 24.1 18 Este 41 Sudeste 0 -- -- 75
2018-06-30 20:00:00 25.8 20 Este 42 Este 0 -- -- 58
2018-06-30 19:00:00 26.7 25 Este 40 Sudeste 0 -- -- 58
2018-06-30 18:00:00 27.5 26 Sudeste 40 Sudeste 0 -- -- 53
2018-06-30 17:00:00 27.9 26 Este 40 Este 0 -- -- 53
2018-06-30 16:00:00 29 21 Este 39 Este 0 -- -- 47
2018-06-30 15:00:00 28.5 30 Este 43 Este 0 -- -- 50
2018-06-30 14:00:00 29.2 27 Este 47 Este 0 -- -- 50
2018-06-30 13:00:00 28.9 23 Este 37 Este 0 -- -- 51
2018-06-30 12:00:00 27.9 25 Este 40 Este 0 -- -- 55
2018-06-30 11:00:00 27.3 22 Este 35 Sudeste 0 -- -- 57
2018-06-30 10:00:00 26.1 15 Este 31 Nordeste 0 -- -- 71
2018-06-30 09:00:00 24.5 20 Nordeste 29 Nordeste 0 -- -- 79
2018-06-30 08:00:00 23.2 12 Nordeste 20 Nordeste 0 -- -- 88
2018-06-30 07:00:00 21.1 8 Nordeste 12 Nordeste 0 -- -- 94
2018-06-30 06:00:00 20.4 4 Nordeste 9 Norte 0 -- -- 95
2018-06-30 05:00:00 20.9 6 Norte 9 Nordeste 0 -- -- 93
2018-06-30 04:00:00 21.2 6 Nordeste 9 Nordeste 0 -- -- 94
2018-06-30 03:00:00 21.4 5 Este 17 Este 0 -- -- 94
2018-06-30 02:00:00 21.6 7 Sudeste 15 Este 0 -- -- 93
2018-06-30 01:00:00 21.6 2 Este 15 Este 0 -- -- 93
2018-06-30 00:00:00 21.8 5 Nordeste 14 Este 0 -- -- 93
2018-06-29 23:00:00 21.9 5 Nordeste 18 Este 0 -- -- 91
2018-06-29 22:00:00 22.4 13 Este 22 Este 0 -- -- 89
2018-06-29 21:00:00 23.2 12 Nordeste 24 Nordeste 0 -- -- 84
2018-06-29 20:00:00 24.9 13 Nordeste 26 Este 0 -- -- 74
2018-06-29 19:00:00 26.6 14 Este 24 Este 0 -- -- 60
2018-06-29 18:00:00 28.3 16 Este 23 Nordeste 0 -- -- 54
2018-06-29 17:00:00 28.1 16 Nordeste 27 Nordeste 0 -- -- 57
2018-06-29 16:00:00 29.6 14 Este 26 Nordeste 0 -- -- 49
2018-06-29 15:00:00 28.5 16 Nordeste 25 Nordeste 0 -- -- 46
2018-06-29 14:00:00 28.1 11 Nordeste 27 Nordeste 0 -- -- 52
2018-06-29 13:00:00 26.9 12 Nordeste 22 Nordeste 0 -- -- 59
2018-06-29 12:00:00 26.4 14 Nordeste 25 Nordeste 0 -- -- 61
2018-06-29 11:00:00 27 16 Nordeste 22 Nordeste 0 -- -- 60
2018-06-29 10:00:00 26.2 10 Nordeste 22 Nordeste 0 -- -- 63
2018-06-29 09:00:00 23.7 14 Nordeste 27 Nordeste 0 -- -- 78
2018-06-29 08:00:00 21.8 5 Nordeste 9 Nordeste 0 -- -- 82
2018-06-29 07:00:00 20.2 3 Norte 5 Norte 0 -- -- 84
2018-06-29 06:00:00 20 3 Norte 5 Nordeste 0 -- -- 80
2018-06-29 05:00:00 20.5 4 Sur 9 Sur 0 -- -- 80
2018-06-29 04:00:00 20.5 3 Noroeste 6 Este 0 -- -- 76
2018-06-29 03:00:00 21.3 2 Oeste 5 Oeste 0 -- -- 79
2018-06-29 02:00:00 22.1 3 Noroeste 8 Norte 0 -- -- 79
2018-06-29 01:00:00 21.7 0 Calma 5 Oeste 0 -- -- 80
2018-06-29 00:00:00 21.9 0 Calma 8 Nordeste 0 -- -- 85
2018-06-28 23:00:00 22.3 6 Nordeste 14 Nordeste 0 -- -- 84
2018-06-28 22:00:00 23 5 Nordeste 16 Este 0 -- -- 78
2018-06-28 21:00:00 23.2 16 Nordeste 21 Nordeste 0 -- -- 83
2018-06-28 20:00:00 24.6 3 Nordeste 19 Nordeste 0 -- -- 76
2018-06-28 19:00:00 24.7 13 Nordeste 24 Nordeste 0 -- -- 75
2018-06-28 18:00:00 25.1 16 Nordeste 25 Nordeste 0 -- -- 76
2018-06-28 17:00:00 25.8 10 Nordeste 21 Este 0 -- -- 74
2018-06-28 16:00:00 27.3 12 Nordeste 22 Nordeste 0 -- -- 70
2018-06-28 15:00:00 27.6 13 Nordeste 29 Nordeste 0 -- -- 64
2018-06-28 14:00:00 28.7 10 Norte 24 Nordeste 0 -- -- 57
2018-06-28 13:00:00 28.6 15 Norte 25 Noroeste 0 -- -- 55
2018-06-28 12:00:00 28.5 16 Norte 23 Noroeste 0 -- -- 52
2018-06-28 11:00:00 29.2 10 Norte 22 Sudoeste 0 -- -- 46
2018-06-28 10:00:00 27.7 6 Noroeste 12 Noroeste 0 -- -- 53
2018-06-28 09:00:00 25.5 7 Sudoeste 12 Oeste 0 -- -- 66
2018-06-28 08:00:00 23.3 2 Sudoeste 6 Sudoeste 0 -- -- 72
2018-06-28 07:00:00 21.6 3 Sudoeste 13 Sudoeste 0 -- -- 84
2018-06-28 06:00:00 21.2 12 Sudoeste 16 Sudoeste 0 -- -- 90
2018-06-28 05:00:00 21.3 9 Sudoeste 16 Sudoeste 0 -- -- 90
2018-06-28 04:00:00 21.8 13 Sudoeste 20 Sudoeste 0 -- -- 88
2018-06-28 03:00:00 21.8 13 Sudoeste 22 Sudoeste 0 -- -- 90
2018-06-28 02:00:00 21.8 10 Sur 21 Sudoeste 0 -- -- 88
2018-06-28 01:00:00 21.8 14 Sur 21 Sur 0 -- -- 88
2018-06-28 00:00:00 21.9 12 Sur 16 Sudoeste 0 -- -- 87
2018-06-27 23:00:00 22 10 Sur 15 Sur 0 -- -- 87
2018-06-27 22:00:00 22.5 10 Sudoeste 19 Sudoeste 0 -- -- 83
2018-06-27 21:00:00 23.4 14 Sudoeste 21 Sudoeste 0 -- -- 76
2018-06-27 20:00:00 25.6 15 Sudoeste 21 Sudoeste 0 -- -- 63
2018-06-27 19:00:00 26.9 14 Sudoeste 23 Sudoeste 0 -- -- 60
2018-06-27 18:00:00 27.1 17 Sur 27 Sur 0 -- -- 61
2018-06-27 17:00:00 27.6 18 Sudoeste 25 Sur 0 -- -- 59
2018-06-27 16:00:00 28.2 7 Norte 22 Noroeste 0 -- -- 47
2018-06-27 15:00:00 28.9 11 Noroeste 23 Nordeste 0 -- -- 44
2018-06-27 14:00:00 28.9 12 Norte 23 Nordeste 0 -- -- 41
2018-06-27 13:00:00 29.4 8 Noroeste 28 Norte 0 -- -- 42
2018-06-27 12:00:00 27.7 7 Norte 22 Noroeste 0 -- -- 52
2018-06-27 11:00:00 27.9 4 Norte 13 Sudoeste 0 -- -- 55
2018-06-27 10:00:00 26.2 8 Oeste 14 Sudoeste 0 -- -- 62
2018-06-27 09:00:00 24.3 7 Oeste 12 Oeste 0 -- -- 73
2018-06-27 08:00:00 22.4 4 Sur 8 Sur 0 -- -- 81
2018-06-27 07:00:00 20.1 5 Sur 9 Sur 0 -- -- 89
2018-06-27 06:00:00 19.4 8 Sur 10 Sudoeste 0 -- -- 91
2018-06-27 05:00:00 19.2 5 Sudoeste 8 Sudoeste 0 -- -- 92
2018-06-27 04:00:00 19.3 7 Sur 10 Sudoeste 0 -- -- 93
2018-06-27 03:00:00 19.1 5 Sudoeste 8 Sudoeste 0 -- -- 91
2018-06-27 02:00:00 19.4 3 Sudoeste 9 Sur 0 -- -- 90
2018-06-27 01:00:00 19.9 4 Sudoeste 6 Sur 0 -- -- 88
2018-06-27 00:00:00 20 6 Sur 9 Sudoeste 0 -- -- 87
2018-06-26 23:00:00 20.6 5 Sur 9 Sur 0 -- -- 84
2018-06-26 22:00:00 21.2 6 Sur 14 Sudoeste 0 -- -- 81
2018-06-26 21:00:00 22.7 12 Sudoeste 19 Sur 0 -- -- 74
2018-06-26 20:00:00 24.9 13 Sudoeste 21 Sudoeste 0 -- -- 65
2018-06-26 19:00:00 26.5 15 Sudoeste 22 Sur 0 -- -- 60
2018-06-26 18:00:00 26.8 11 Nordeste 23 Nordeste 0 -- -- 58
2018-06-26 17:00:00 27.4 14 Nordeste 20 Nordeste 0 -- -- 51
2018-06-26 16:00:00 28 11 Nordeste 22 Nordeste 0 -- -- 46
2018-06-26 15:00:00 27.8 12 Norte 26 Nordeste 0 -- -- 41
2018-06-26 14:00:00 28 10 Norte 20 Nordeste 0 -- -- 41
2018-06-26 13:00:00 27.5 9 Norte 19 Noroeste 0 -- -- 41
2018-06-26 12:00:00 27.2 8 Nordeste 18 Norte 0 -- -- 44
2018-06-26 11:00:00 26.3 9 Norte 18 Este 0 -- -- 42
2018-06-26 10:00:00 24.8 8 Norte 18 Nordeste 0 -- -- 49
2018-06-26 09:00:00 23.7 9 Nordeste 14 Nordeste 0 -- -- 59
2018-06-26 08:00:00 21.1 3 Noroeste 8 Noroeste 0 -- -- 75
2018-06-26 07:00:00 18.3 0 Calma 4 Nordeste 0 -- -- 85
2018-06-26 06:00:00 18.1 0 Calma 2 Nordeste 0 -- -- 87
2018-06-26 05:00:00 17.9 3 Oeste 7 Sudoeste 0 -- -- 89
2018-06-26 04:00:00 18.1 4 Oeste 9 Nordeste 0 -- -- 88
2018-06-26 03:00:00 18.6 7 Nordeste -- -- 0 -- -- 87
2018-06-26 02:00:00 19.4 0 Calma 6 Sudoeste 0 -- -- 84
2018-06-26 01:00:00 20.1 3 Sudoeste 6 Sudoeste 0 -- -- 84
2018-06-26 00:00:00 20.1 4 Sur 6 Sudoeste 0 -- -- 81
2018-06-25 23:00:00 21 0 Calma 6 Sudoeste 0 -- -- 78
2018-06-25 22:00:00 21.5 4 Sudoeste 8 Sudoeste 0 -- -- 68
2018-06-25 21:00:00 23.5 7 Nordeste 15 Nordeste 0 -- -- 60
2018-06-25 20:00:00 25.5 10 Nordeste 14 Nordeste 0 -- -- 51
2018-06-25 19:00:00 26.2 9 Nordeste 18 Nordeste 0 -- -- 50
2018-06-25 18:00:00 26.8 12 Nordeste 19 Norte 0 -- -- 47
2018-06-25 17:00:00 27.1 12 Norte 21 Norte 0 -- -- 46
2018-06-25 16:00:00 26.7 11 Nordeste 21 Noroeste 0 -- -- 58
2018-06-25 15:00:00 26.6 12 Norte 24 Norte 0 -- -- 57
2018-06-25 14:00:00 26.4 14 Norte 24 Norte 0 -- -- 57
2018-06-25 13:00:00 26.2 15 Norte 23 Norte 0 -- -- 56
2018-06-25 12:00:00 26.1 14 Norte 23 Norte 0 -- -- 53
2018-06-25 11:00:00 26.2 12 Norte 18 Nordeste 0 -- -- 51
2018-06-25 10:00:00 25 13 Norte 23 Norte 0 -- -- 55
2018-06-25 09:00:00 23.6 14 Norte 22 Norte 0 -- -- 58
2018-06-25 08:00:00 21.5 5 Norte 8 Norte 0 -- -- 82
2018-06-25 07:00:00 19.2 0 Calma 2 Este 0 -- -- 89
2018-06-25 06:00:00 18.9 2 Este 4 Sudoeste 0 -- -- 93
2018-06-25 05:00:00 18.1 3 Sudoeste 11 Sudoeste 0 -- -- 88
2018-06-25 04:00:00 17.9 2 Sudoeste 3 Oeste 0 -- -- 84
2018-06-25 03:00:00 18.2 3 Sudoeste 5 Sudoeste 0 -- -- 79
2018-06-25 02:00:00 18.3 2 Oeste 4 Oeste 0 -- -- 72
2018-06-25 01:00:00 17.8 2 Oeste 4 Oeste 0 -- -- 80
2018-06-25 00:00:00 19.1 0 Calma 5 Sudoeste 0 -- -- 77
2018-06-24 23:00:00 19.7 0 Calma 5 Oeste 0 -- -- 74
2018-06-24 22:00:00 21.2 3 Norte 9 Nordeste 0 -- -- 67
2018-06-24 21:00:00 23.1 5 Norte 10 Nordeste 0 -- -- 61
2018-06-24 20:00:00 24.6 7 Norte 13 Nordeste 0 -- -- 60
2018-06-24 19:00:00 25.7 9 Nordeste 15 Norte 0 -- -- 59
2018-06-24 18:00:00 25.5 10 Nordeste 19 Nordeste 0 -- -- 59
2018-06-24 17:00:00 25.2 12 Norte 22 Nordeste 0 -- -- 63
2018-06-24 16:00:00 25.2 16 Nordeste 26 Nordeste 0 -- -- 63
2018-06-24 15:00:00 25.5 17 Norte 27 Nordeste 0 -- -- 62
2018-06-24 14:00:00 24.9 17 Nordeste 24 Nordeste 0 -- -- 62
2018-06-24 13:00:00 24.8 15 Norte 27 Norte 0 -- -- 61
2018-06-24 12:00:00 24.6 16 Norte 26 Norte 0 -- -- 60
2018-06-24 11:00:00 23.8 15 Norte 22 Norte 0 -- -- 65
2018-06-24 10:00:00 23.1 15 Norte 23 Nordeste 0 -- -- 71
2018-06-24 09:00:00 22.5 14 Nordeste 20 Nordeste 0 -- -- 77
2018-06-24 08:00:00 21.2 10 Norte 21 Nordeste 0 -- -- 85
2018-06-24 07:00:00 20 12 Norte 22 Norte 0 -- -- 93
2018-06-24 06:00:00 19.3 8 Norte 13 Norte 0 -- -- 97
2018-06-24 05:00:00 19.6 5 Noroeste 12 Norte 0 -- -- 96
2018-06-24 04:00:00 20.2 9 Norte 14 Noroeste 0 -- -- 95
2018-06-24 03:00:00 19.4 2 Noroeste 8 Nordeste 0 -- -- 94
2018-06-24 02:00:00 18.8 0 Calma 12 Norte 0 -- -- 91
2018-06-24 01:00:00 19.3 9 Norte 20 Norte 0 -- -- 89
2018-06-24 00:00:00 19.3 13 Norte 18 Norte 0 -- -- 86
2018-06-23 23:00:00 19.1 9 Norte 15 Norte 0 -- -- 76
2018-06-23 22:00:00 20.4 9 Norte 14 Noroeste 0 -- -- 62
2018-06-23 21:00:00 22.1 11 Norte 20 Noroeste 0 -- -- 56
2018-06-23 20:00:00 23.5 15 Norte 24 Norte 0 -- -- 49
2018-06-23 19:00:00 24.2 17 Norte 26 Norte 0 -- -- 52
2018-06-23 18:00:00 24.2 17 Norte 25 Norte 0 -- -- 51
2018-06-23 17:00:00 24.3 16 Norte 29 Norte 0 -- -- 53
2018-06-23 16:00:00 24.7 17 Norte 33 Nordeste 0 -- -- 47
2018-06-23 15:00:00 24.1 21 Norte 36 Norte 0 -- -- 40
2018-06-23 14:00:00 24.6 24 Norte 36 Norte 0 -- -- 44
2018-06-23 13:00:00 24.8 18 Norte 34 Nordeste 0 -- -- 46
2018-06-23 12:00:00 24.4 21 Norte 33 Norte 0 -- -- 46
2018-06-23 11:00:00 23.4 22 Norte 33 Nordeste 0 -- -- 50
2018-06-23 10:00:00 23.4 23 Norte 32 Norte 0 -- -- 49
2018-06-23 09:00:00 22.9 16 Norte 29 Norte 0 -- -- 59
2018-06-23 08:00:00 21.6 11 Norte 21 Norte 0 -- -- 62
2018-06-23 07:00:00 21.3 12 Norte 18 Nordeste 0 -- -- 64
2018-06-23 06:00:00 21.2 12 Norte 17 Norte 0 -- -- 68
2018-06-23 05:00:00 21.6 9 Norte 12 Norte 0 -- -- 83
2018-06-23 04:00:00 21.8 4 Norte 7 Norte 0 -- -- 79
2018-06-23 03:00:00 21.6 3 Oeste 6 Noroeste 0 -- -- 83
2018-06-23 02:00:00 21.6 0 Calma 8 Sudoeste 0 -- -- 89
2018-06-23 01:00:00 21.5 7 Sudoeste 9 Sudoeste 0 -- -- 91
2018-06-23 00:00:00 21.7 5 Sudoeste 10 Sur 0 -- -- 93
2018-06-22 23:00:00 22.1 6 Sudoeste 9 Sudoeste 0 -- -- 90
2018-06-22 22:00:00 23.2 5 Sudoeste 9 Nordeste 0 -- -- 78
2018-06-22 21:00:00 25.5 4 Nordeste 8 Norte 0 -- -- 56
2018-06-22 20:00:00 26.6 4 Norte 12 Nordeste 0 -- -- 53
2018-06-22 19:00:00 26 8 Nordeste 18 Norte 0 -- -- 64
2018-06-22 18:00:00 26.7 13 Norte 20 Norte 0 -- -- 65
2018-06-22 17:00:00 27.2 12 Norte 19 Norte 0 -- -- 64
2018-06-22 16:00:00 26.6 13 Norte 23 Norte 0 -- -- 66
2018-06-22 15:00:00 26.6 14 Norte 31 Nordeste 0 -- -- 66
2018-06-22 14:00:00 26.8 18 Nordeste 29 Norte 0 -- -- 59
2018-06-22 13:00:00 27 18 Norte 28 Norte 0 -- -- 65
2018-06-22 12:00:00 26.9 18 Nordeste 29 Norte 0 -- -- 60
2018-06-22 11:00:00 27.1 20 Norte 27 Norte 0 -- -- 58
2018-06-22 10:00:00 27.3 15 Norte 22 Norte 0 -- -- 54
2018-06-22 09:00:00 26.2 8 Norte 15 Noroeste 0 -- -- 58
2018-06-22 08:00:00 23.4 7 Sudoeste 14 Oeste 0 -- -- 65
2018-06-22 07:00:00 21.2 9 Sudoeste 15 Sudoeste 0 -- -- 63
2018-06-22 06:00:00 20.5 4 Sudoeste 9 Sur 0 -- -- 73
2018-06-22 05:00:00 20.2 6 Sur 10 Sur 0 -- -- 84
2018-06-22 04:00:00 20.1 7 Sudoeste 10 Sur 0 -- -- 87
2018-06-22 03:00:00 20.1 6 Sur 10 Sudoeste 0 -- -- 94
2018-06-22 02:00:00 20.3 6 Sudoeste 11 Sudoeste 0 -- -- 94
2018-06-22 01:00:00 20.6 6 Sur 10 Sur 0 -- -- 92
2018-06-22 00:00:00 20.7 5 Sudoeste 12 Sur 0 -- -- 91
2018-06-21 23:00:00 21.1 8 Sur 10 Sudoeste 0 -- -- 88
2018-06-21 22:00:00 22 4 Sudoeste 10 Sur 0 -- -- 77
2018-06-21 21:00:00 24.5 3 Norte 11 Nordeste 0 -- -- 56
2018-06-21 20:00:00 25.7 9 Nordeste 15 Norte 0 -- -- 51
2018-06-21 19:00:00 26.6 11 Nordeste 18 Norte 0 -- -- 52
2018-06-21 18:00:00 27.2 11 Nordeste 22 Nordeste 0 -- -- 51
2018-06-21 17:00:00 27.8 12 Norte 22 Norte 0 -- -- 48
2018-06-21 16:00:00 28.1 12 Nordeste 26 Nordeste 0 -- -- 48
2018-06-21 15:00:00 28.1 14 Norte 26 Norte 0 -- -- 48
2018-06-21 14:00:00 28 15 Norte 26 Nordeste 0 -- -- 50
2018-06-21 13:00:00 28.2 12 Nordeste 20 Nordeste 0 -- -- 44
2018-06-21 12:00:00 27.6 9 Nordeste 17 Nordeste 0 -- -- 46
2018-06-21 11:00:00 26.7 10 Norte 16 Nordeste 0 -- -- 50
2018-06-21 10:00:00 25.6 9 Nordeste 15 Nordeste 0 -- -- 57
2018-06-21 09:00:00 23.8 5 Nordeste 9 Norte 0 -- -- 70
2018-06-21 08:00:00 20.3 2 Este 5 Nordeste 0 -- -- 99
2018-06-21 07:00:00 18.8 2 Nordeste 3 Nordeste 0 -- -- 96
2018-06-21 06:00:00 18.5 0 Calma 4 Sudoeste 0 -- -- 95
2018-06-21 05:00:00 18.7 0 Calma 5 Oeste 0 -- -- 94
2018-06-21 04:00:00 18.9 2 Oeste 3 Noroeste 0 -- -- 87
2018-06-21 03:00:00 18.9 0 Calma 3 Oeste 0 -- -- 79
2018-06-21 02:00:00 19 3 Oeste 5 Oeste 0 -- -- 75
2018-06-21 01:00:00 19.2 0 Calma 3 Oeste 0 -- -- 74
2018-06-21 00:00:00 19.9 0 Calma 4 Sudoeste 0 -- -- 73
2018-06-20 23:00:00 20.7 2 Sur 6 Sur 0 -- -- 73
2018-06-20 22:00:00 22.3 0 Calma 6 Norte 0 -- -- 68
2018-06-20 21:00:00 24.1 6 Nordeste 12 Nordeste 0 -- -- 57
2018-06-20 20:00:00 25.9 7 Norte 14 Nordeste 0 -- -- 57
2018-06-20 19:00:00 26.2 12 Nordeste 19 Norte 0 -- -- 54
2018-06-20 18:00:00 26.8 15 Norte 23 Nordeste 0 -- -- 56
2018-06-20 17:00:00 27.8 13 Norte 21 Norte 0 -- -- 54
2018-06-20 16:00:00 28.1 12 Norte 21 Norte 0 -- -- 50
2018-06-20 15:00:00 28.5 13 Norte 22 Norte 0 -- -- 48
2018-06-20 14:00:00 27.7 13 Nordeste 26 Nordeste 0 -- -- 54
2018-06-20 13:00:00 27.2 13 Nordeste 22 Nordeste 0 -- -- 56
2018-06-20 12:00:00 26.9 12 Nordeste 19 Norte 0 -- -- 55
2018-06-20 11:00:00 26.4 10 Nordeste 18 Nordeste 0 -- -- 53
2018-06-20 10:00:00 25 10 Norte 17 Norte 0 -- -- 64
2018-06-20 09:00:00 23.3 11 Norte 15 Norte 0 -- -- 73
2018-06-20 08:00:00 21.5 5 Nordeste 8 Nordeste 0 -- -- 92
2018-06-20 07:00:00 19.7 2 Norte 6 Norte 0 -- -- 98
2018-06-20 06:00:00 19.2 4 Norte 6 Nordeste 0 -- -- 98
2018-06-20 05:00:00 19.5 6 Norte 9 Nordeste 0 -- -- 98
2018-06-20 04:00:00 19.2 5 Norte 8 Nordeste 0 -- -- 96
2018-06-20 03:00:00 19.5 6 Nordeste 10 Norte 0 -- -- 94
2018-06-20 02:00:00 19.7 6 Norte 10 Nordeste 0 -- -- 91
2018-06-20 01:00:00 20 8 Norte 12 Norte 0 -- -- 89
2018-06-20 00:00:00 19.9 7 Norte 14 Norte 0 -- -- 85
2018-06-19 23:00:00 20.2 9 Norte 16 Norte 0 -- -- 81
2018-06-19 22:00:00 20.2 9 Norte 19 Norte 0 -- -- 81
2018-06-19 21:00:00 21.4 14 Norte 24 Norte 0 -- -- 75
2018-06-19 20:00:00 22.6 19 Norte 28 Norte 0 -- -- 68
2018-06-19 19:00:00 23.2 21 Norte 35 Norte 0 -- -- 64
2018-06-19 18:00:00 23.4 26 Norte 36 Norte 0 -- -- 63
2018-06-19 17:00:00 23.4 27 Norte 41 Norte 0 -- -- 60
2018-06-19 16:00:00 23.7 29 Norte 44 Norte 0 -- -- 60
2018-06-19 15:00:00 23.9 29 Norte 44 Norte 0 -- -- 58
2018-06-19 14:00:00 23.7 31 Norte 49 Norte 0 -- -- 61
2018-06-19 13:00:00 23.2 32 Norte 49 Nordeste 0 -- -- 65
2018-06-19 12:00:00 23.4 30 Norte 51 Nordeste 0 -- -- 65
2018-06-19 11:00:00 22.6 37 Norte 48 Norte 0 -- -- 68
2018-06-19 10:00:00 22.6 26 Norte 45 Norte 0 -- -- 69
2018-06-19 09:00:00 21.9 30 Norte 43 Norte 0 -- -- 73
2018-06-19 08:00:00 21.4 22 Norte 40 Norte 0 -- -- 76
2018-06-19 07:00:00 20.7 22 Norte 42 Norte 0 -- -- 77
2018-06-19 06:00:00 20.3 23 Norte 37 Norte 0 -- -- 79
2018-06-19 05:00:00 20.5 23 Norte 41 Norte 0 -- -- 77
2018-06-19 04:00:00 20.8 27 Norte 48 Norte 0 -- -- 76
2018-06-19 03:00:00 20.8 28 Norte 45 Norte 0 -- -- 75
2018-06-19 02:00:00 20.8 25 Norte 42 Norte 0 -- -- 75
2018-06-19 01:00:00 20.9 22 Norte 32 Norte 0 -- -- 79
2018-06-19 00:00:00 20.9 21 Norte 35 Norte 0 -- -- 77
2018-06-18 23:00:00 20.9 18 Norte 30 Norte 0 -- -- 80
2018-06-18 22:00:00 20.7 14 Norte 29 Norte 0 -- -- 77
2018-06-18 21:00:00 21.2 17 Norte 32 Norte 0 -- -- 73
2018-06-18 20:00:00 22.3 17 Noroeste 33 Norte 0 -- -- 75
2018-06-18 19:00:00 23.4 17 Norte 32 Norte 0 -- -- 70
2018-06-18 18:00:00 23.4 18 Norte 28 Norte 0 -- -- 72
2018-06-18 17:00:00 23.7 19 Norte 31 Norte 0 -- -- 69
2018-06-18 16:00:00 24 18 Norte 31 Norte 0 -- -- 70
2018-06-18 15:00:00 23.8 21 Norte 33 Norte 0 -- -- 70
2018-06-18 14:00:00 24.2 24 Norte 35 Norte 0 -- -- 68
2018-06-18 13:00:00 24.7 21 Norte 31 Norte 0 -- -- 65
2018-06-18 12:00:00 24.3 17 Norte 27 Norte 0 -- -- 64
2018-06-18 11:00:00 23.1 13 Norte 24 Nordeste 0 -- -- 66
2018-06-18 10:00:00 21.9 17 Norte 30 Nordeste 0 -- -- 69
2018-06-18 09:00:00 21.6 21 Norte 29 Norte 0 -- -- 69
2018-06-18 08:00:00 20.9 6 Norte 17 Norte 0 -- -- 75
2018-06-18 07:00:00 20.1 4 Noroeste 13 Noroeste 0 -- -- 77
2018-06-18 06:00:00 18.9 6 Noroeste 11 Noroeste 0 -- -- 81
2018-06-18 05:00:00 18.5 4 Noroeste 8 Noroeste 0 -- -- 84
2018-06-18 04:00:00 18.3 4 Norte 10 Noroeste 0 -- -- 85
2018-06-18 03:00:00 19 5 Nordeste 13 Nordeste 0 -- -- 82
2018-06-18 02:00:00 19.7 11 Norte 16 Norte 0 -- -- 81
2018-06-18 01:00:00 19.5 9 Norte 14 Nordeste 0 -- -- 85
2018-06-18 00:00:00 18.6 5 Norte 8 Norte 0 -- -- 87
2018-06-17 23:00:00 19.2 0 Calma 8 Nordeste 0 -- -- 84
2018-06-17 22:00:00 20 2 Oeste -- -- 0 -- -- 80
2018-06-17 21:00:00 21.3 3 Norte 7 Norte 0 -- -- 74
2018-06-17 20:00:00 21.3 5 Norte 18 Norte 0 -- -- 74
2018-06-17 19:00:00 22.7 12 Norte 19 Norte 0 -- -- 69
2018-06-17 18:00:00 24 6 Norte 13 Norte 0 -- -- 61
2018-06-17 17:00:00 23.5 10 Norte 23 Norte 0 -- -- 61
2018-06-17 16:00:00 23.6 12 Norte 23 Nordeste 0 -- -- 62
2018-06-17 15:00:00 23.6 16 Norte 29 Norte 0 -- -- 61
2018-06-17 14:00:00 22.8 23 Nordeste 35 Nordeste 0 -- -- 62
2018-06-17 13:00:00 22.9 22 Nordeste 36 Nordeste 0 -- -- 66
2018-06-17 12:00:00 22.5 27 Nordeste 40 Nordeste 0 -- -- 66
2018-06-17 11:00:00 22.9 17 Nordeste 30 Nordeste 0 -- -- 66
2018-06-17 10:00:00 22.1 18 Norte 24 Norte 0 -- -- 76
2018-06-17 09:00:00 22 8 Nordeste 14 Nordeste 0 -- -- 80
2018-06-17 08:00:00 20.5 0 Calma 4 Norte 0 -- -- 89
2018-06-17 07:00:00 18.2 2 Noroeste 5 Nordeste 0 -- -- 94
2018-06-17 06:00:00 18.2 2 Nordeste 5 Norte 0 -- -- 91
2018-06-17 05:00:00 18.1 0 Calma 3 Sudoeste 0 -- -- 91
2018-06-17 04:00:00 18.6 0 Calma 6 Sudoeste 0 -- -- 92
2018-06-17 03:00:00 18.3 4 Sudoeste 5 Sudoeste 0 -- -- 92
2018-06-17 02:00:00 18.4 0 Calma 4 Sur 0 -- -- 90
2018-06-17 01:00:00 18.8 3 Sudoeste 4 Sudoeste 0 -- -- 89
2018-06-17 00:00:00 19.2 2 Sudoeste 4 Sudoeste 0 -- -- 86